PXO weather

Porto Santo Airport
Vila Baleira, Autonomous Region of Madeira, Portugal

Public forecast

Using degrees Celsius for public forecast. Weather courtesy of forecast.io.

Current aviation weather report (METAR) for Porto Santo Airport

Retrieved 2019/11/17 18:30 UTC (24 minutes ago):

LPPS 171830Z 33008KT 9999 SCT015 18/12 Q1024

Aviation forecast (TAF) for Porto Santo Airport

Retrieved 2019/11/17 18:18 UTC (36 minutes ago):

TAF LPPS 171700Z 1718/1824 35010KT 9999 SCT015 TEMPO 1718/1824 FEW015 BKN030 PROB30 TEMPO 1722/1824 6000 -RA SCT005 BKN010